createdAt,value
2018-07-11T00:02:16.094Z,18.42
2018-07-11T00:04:44.728Z,17.37
2018-07-11T00:07:13.248Z,16.95
2018-07-11T00:09:41.717Z,18.37
2018-07-11T00:12:10.401Z,16.40
2018-07-11T00:14:38.992Z,18.30
2018-07-11T00:17:11.685Z,17.37
2018-07-11T00:19:40.193Z,17.98
2018-07-11T00:22:08.713Z,17.12
2018-07-11T00:24:37.921Z,16.90
2018-07-11T00:27:06.880Z,16.80
2018-07-11T00:29:35.363Z,17.27
2018-07-11T00:32:03.887Z,16.20
2018-07-11T00:34:32.336Z,17.25
2018-07-11T00:37:00.888Z,17.37
2018-07-11T00:39:29.646Z,16.12
2018-07-11T00:41:58.118Z,15.15
2018-07-11T00:44:26.648Z,14.93
2018-07-11T00:46:55.168Z,14.58
2018-07-11T00:49:23.716Z,14.75
2018-07-11T00:51:52.444Z,14.10
2018-07-11T00:54:20.956Z,16.93
2018-07-11T00:56:49.467Z,13.35
2018-07-11T00:59:23.540Z,13.65
2018-07-11T01:01:52.025Z,13.05
2018-07-11T01:04:20.544Z,13.72
2018-07-11T01:06:49.157Z,13.13
2018-07-11T01:09:17.770Z,12.30
2018-07-11T01:11:46.309Z,14.83
2018-07-11T01:14:15.480Z,13.60
2018-07-11T01:16:43.958Z,13.48
2018-07-11T01:19:12.455Z,14.28
2018-07-11T01:21:40.912Z,14.98
2018-07-11T01:24:09.368Z,16.27
2018-07-11T01:26:38.972Z,14.23
2018-07-11T01:29:08.056Z,14.63
2018-07-11T01:31:36.526Z,13.75
2018-07-11T01:34:04.968Z,14.50
2018-07-11T01:36:33.569Z,13.85
2018-07-11T01:39:02.560Z,14.07
2018-07-11T01:41:31.064Z,13.95
2018-07-11T01:43:59.548Z,14.75
2018-07-11T01:47:01.924Z,13.62
2018-07-11T01:49:30.398Z,14.43
2018-07-11T01:52:10.108Z,16.75
2018-07-11T01:54:38.689Z,14.78
2018-07-11T01:57:07.313Z,13.43
2018-07-11T01:59:37.186Z,13.53
2018-07-11T02:02:09.989Z,16.02
2018-07-11T02:04:40.585Z,13.98
2018-07-11T02:07:10.067Z,14.95
2018-07-11T02:09:38.568Z,13.25
2018-07-11T02:12:07.165Z,16.20
2018-07-11T02:14:36.684Z,14.10
2018-07-11T02:17:05.255Z,13.32
2018-07-11T02:19:34.056Z,13.05
2018-07-11T02:22:02.592Z,15.03
2018-07-11T02:24:31.636Z,17.15
2018-07-11T02:27:00.226Z,13.78
2018-07-11T02:29:28.855Z,13.72
2018-07-11T02:31:57.360Z,17.55
2018-07-11T02:34:31.198Z,14.15
2018-07-11T02:36:59.749Z,15.08
2018-07-11T02:39:28.332Z,13.22
2018-07-11T02:41:57.846Z,13.43
2018-07-11T02:44:26.525Z,12.37
2018-07-11T02:47:00.493Z,14.13
2018-07-11T02:49:29.104Z,16.32
2018-07-11T02:51:57.823Z,16.10
2018-07-11T02:54:26.875Z,16.25
2018-07-11T02:56:55.388Z,13.88
2018-07-11T02:59:24.045Z,13.40
2018-07-11T03:01:52.468Z,15.23
2018-07-11T03:04:20.933Z,14.10
2018-07-11T03:06:49.385Z,17.62
2018-07-11T03:09:18.265Z,14.25
2018-07-11T03:11:46.716Z,16.17
2018-07-11T03:14:15.151Z,13.65
2018-07-11T03:16:43.676Z,16.25
2018-07-11T03:19:12.701Z,14.95
2018-07-11T03:21:41.305Z,16.20
2018-07-11T03:24:09.853Z,14.53
2018-07-11T03:26:38.388Z,15.38
2018-07-11T03:29:06.989Z,15.43
2018-07-11T03:31:35.591Z,16.93
2018-07-11T03:34:04.149Z,13.80
2018-07-11T03:36:32.576Z,12.73
2018-07-11T03:39:00.990Z,13.05
2018-07-11T03:41:29.520Z,14.45
2018-07-11T03:43:57.984Z,14.68
2018-07-11T03:46:27.149Z,14.68
2018-07-11T03:48:55.597Z,17.27
2018-07-11T03:51:24.045Z,13.05
2018-07-11T03:53:52.572Z,14.40
2018-07-11T03:56:20.949Z,16.67
2018-07-11T03:58:49.397Z,16.12
2018-07-11T04:01:18.136Z,13.85
2018-07-11T04:03:46.661Z,13.62
2018-07-11T04:06:15.062Z,14.55
2018-07-11T04:08:43.481Z,18.73
2018-07-11T04:11:11.869Z,13.88
2018-07-11T04:13:40.888Z,17.85
2018-07-11T04:16:09.300Z,20.90
2018-07-11T04:18:37.727Z,17.20
2018-07-11T04:21:06.201Z,15.18
2018-07-11T04:23:34.680Z,16.97
2018-07-11T04:26:03.194Z,15.60
2018-07-11T04:28:31.693Z,15.48
2018-07-11T04:31:00.237Z,17.02
2018-07-11T04:33:29.807Z,18.12
2018-07-11T04:35:58.330Z,17.50
2018-07-11T04:38:27.289Z,18.60
2018-07-11T04:40:55.680Z,19.10
2018-07-11T04:43:26.559Z,19.07
2018-07-11T04:45:55.296Z,17.90
2018-07-11T04:48:24.008Z,18.77
2018-07-11T04:50:52.888Z,16.40
2018-07-11T04:53:23.716Z,17.07
2018-07-11T04:55:55.209Z,15.50
2018-07-11T04:58:23.339Z,18.35
2018-07-11T05:00:51.825Z,16.55
2018-07-11T05:03:20.381Z,17.05
2018-07-11T05:05:48.884Z,21.05
2018-07-11T05:08:18.022Z,20.20
2018-07-11T05:10:46.514Z,19.65
2018-07-11T05:13:15.829Z,18.70
2018-07-11T05:15:44.916Z,19.40
2018-07-11T05:18:13.472Z,19.52
2018-07-11T05:20:42.017Z,23.12
2018-07-11T05:23:10.428Z,23.38
2018-07-11T05:25:38.873Z,18.35
2018-07-11T05:28:07.315Z,26.07
2018-07-11T05:30:36.447Z,21.73
2018-07-11T05:33:04.887Z,19.98
2018-07-11T05:35:33.354Z,18.80
2018-07-11T05:38:01.816Z,16.82
2018-07-11T05:40:30.236Z,19.23
2018-07-11T05:42:58.785Z,16.30
2018-07-11T05:45:27.384Z,17.87
2018-07-11T05:47:55.829Z,17.92
2018-07-11T05:50:24.239Z,19.00
2018-07-11T05:52:52.692Z,18.20
2018-07-11T05:55:21.111Z,23.12
2018-07-11T05:57:49.524Z,20.17
2018-07-11T06:00:17.965Z,21.15
2018-07-11T06:02:46.472Z,18.80
2018-07-11T06:05:15.014Z,20.05
2018-07-11T06:07:44.053Z,22.13
2018-07-11T06:10:12.488Z,20.65
2018-07-11T06:12:41.089Z,22.13
2018-07-11T06:15:09.505Z,23.22
2018-07-11T06:17:38.836Z,24.32
2018-07-11T06:20:07.254Z,23.98
2018-07-11T06:22:36.401Z,22.00
2018-07-11T06:25:04.812Z,22.85
2018-07-11T06:27:33.748Z,23.27
2018-07-11T06:30:02.181Z,26.23
2018-07-11T06:32:30.738Z,25.02
2018-07-11T06:34:59.157Z,23.15
2018-07-11T06:37:27.701Z,22.98
2018-07-11T06:39:56.138Z,23.07
2018-07-11T06:42:24.649Z,24.98
2018-07-11T06:44:53.090Z,24.30
2018-07-11T06:47:21.540Z,25.05
2018-07-11T06:49:50.078Z,24.37
2018-07-11T06:52:18.494Z,22.67
2018-07-11T06:54:46.933Z,25.17
2018-07-11T06:57:15.413Z,24.45
2018-07-11T06:59:43.844Z,23.27
2018-07-11T07:02:12.317Z,24.30
2018-07-11T07:04:41.272Z,23.87
2018-07-11T07:07:09.864Z,25.55
2018-07-11T07:09:38.312Z,22.82
2018-07-11T07:12:07.356Z,25.37
2018-07-11T07:14:35.790Z,23.35
2018-07-11T07:17:04.232Z,26.65
2018-07-11T07:19:32.669Z,21.15
2018-07-11T07:22:01.094Z,22.50
2018-07-11T07:24:29.721Z,21.75
2018-07-11T07:26:58.168Z,20.25
2018-07-11T07:29:26.725Z,21.05
2018-07-11T07:31:55.835Z,21.20
2018-07-11T07:34:24.308Z,22.37
2018-07-11T07:36:52.855Z,20.90
2018-07-11T07:39:21.249Z,20.12
2018-07-11T07:41:49.653Z,20.75
2018-07-11T07:44:18.118Z,20.12
2018-07-11T07:46:52.092Z,22.02
2018-07-11T07:49:20.657Z,21.07
2018-07-11T07:51:49.511Z,21.90
2018-07-11T07:54:18.001Z,25.30
2018-07-11T07:56:47.265Z,21.25
2018-07-11T07:59:15.945Z,23.05
2018-07-11T08:01:44.492Z,25.40
2018-07-11T08:04:13.357Z,21.40
2018-07-11T08:06:42.619Z,22.77
2018-07-11T08:09:11.021Z,20.75
2018-07-11T08:11:39.130Z,21.73
2018-07-11T08:14:07.572Z,20.75
2018-07-11T08:16:36.013Z,21.62
2018-07-11T08:19:04.461Z,23.15
2018-07-11T08:21:32.995Z,22.75
2018-07-11T08:24:12.817Z,22.62
2018-07-11T08:26:52.435Z,22.98
2018-07-11T08:29:36.941Z,25.72
2018-07-11T08:42:09.192Z,26.20
2018-07-11T08:44:49.449Z,37.48
2018-07-11T08:49:33.787Z,33.55
2018-07-11T08:54:19.733Z,33.20
2018-07-11T08:57:02.825Z,33.60
2018-07-11T08:59:43.285Z,31.70
2018-07-11T09:03:21.945Z,30.95
2018-07-11T09:06:32.673Z,29.50
2018-07-11T09:09:30.919Z,31.73
2018-07-11T09:43:03.592Z,16.62
2018-07-11T09:45:32.766Z,15.58
2018-07-11T09:48:01.505Z,14.40
2018-07-11T09:50:30.073Z,12.13
2018-07-11T09:52:58.592Z,11.65
2018-07-11T09:55:27.110Z,8.83
2018-07-11T09:57:55.876Z,7.12
2018-07-11T10:00:30.418Z,8.88
2018-07-11T10:02:59.632Z,8.15
2018-07-11T10:05:29.226Z,6.85
2018-07-11T10:07:58.548Z,6.45
2018-07-11T10:10:27.096Z,7.35
2018-07-11T10:12:55.577Z,6.53
2018-07-11T10:15:24.073Z,8.43
2018-07-11T10:17:52.645Z,7.22
2018-07-11T10:20:21.176Z,6.83
2018-07-11T10:22:49.842Z,7.15
2018-07-11T10:25:17.957Z,6.25
2018-07-11T10:27:46.824Z,6.75
2018-07-11T10:30:15.388Z,5.95
2018-07-11T10:32:45.093Z,4.03
2018-07-11T10:35:13.565Z,5.28
2018-07-11T10:37:42.337Z,5.87
2018-07-11T10:40:10.947Z,7.40
2018-07-11T10:42:39.905Z,5.25
2018-07-11T10:45:08.488Z,8.43
2018-07-11T10:47:37.100Z,6.00
2018-07-11T10:50:05.560Z,6.17
2018-07-11T10:52:34.223Z,5.58
2018-07-11T10:55:03.089Z,5.58
2018-07-11T10:57:32.025Z,4.60
2018-07-11T11:00:00.589Z,4.50
2018-07-11T11:02:29.103Z,6.58
2018-07-11T11:04:57.602Z,6.30
2018-07-11T11:07:26.130Z,5.80
2018-07-11T11:09:54.674Z,5.22
2018-07-11T11:12:23.099Z,5.60
2018-07-11T11:14:51.622Z,7.35
2018-07-11T11:17:20.184Z,5.97
2018-07-11T11:19:48.688Z,4.58
2018-07-11T11:22:17.837Z,5.17
2018-07-11T11:24:46.352Z,2.98
2018-07-11T11:27:15.639Z,4.67
2018-07-11T11:29:44.078Z,4.25
2018-07-11T11:32:12.624Z,3.05
2018-07-11T11:34:41.362Z,3.85
2018-07-11T11:37:09.892Z,4.10
2018-07-11T11:39:38.361Z,3.83
2018-07-11T11:42:07.357Z,3.33
2018-07-11T11:44:35.995Z,2.70
2018-07-11T11:47:05.802Z,3.37
2018-07-11T11:49:34.484Z,5.03
2018-07-11T11:52:03.010Z,2.60
2018-07-11T11:54:32.183Z,2.62
2018-07-11T11:57:00.848Z,2.77
2018-07-11T11:59:29.453Z,3.58
2018-07-11T12:01:57.992Z,2.85
2018-07-11T12:04:27.369Z,2.67
2018-07-11T12:06:56.929Z,3.15
2018-07-11T12:09:25.501Z,2.60
2018-07-11T12:11:54.216Z,2.72
2018-07-11T12:14:22.673Z,2.90
2018-07-11T12:16:51.334Z,3.33
2018-07-11T12:19:20.849Z,2.95
2018-07-11T12:21:49.432Z,2.60
2018-07-11T12:24:18.113Z,2.92
2018-07-11T12:26:47.394Z,3.35
2018-07-11T12:29:16.524Z,4.28
2018-07-11T12:31:45.050Z,3.95
2018-07-11T12:34:13.521Z,3.47
2018-07-11T12:36:42.292Z,3.62
2018-07-11T12:39:11.176Z,4.50
2018-07-11T12:41:39.675Z,3.10
2018-07-11T12:44:08.125Z,3.50
2018-07-11T12:46:36.943Z,3.33
2018-07-11T12:49:06.522Z,3.15
2018-07-11T12:51:35.623Z,2.95
2018-07-11T12:54:04.817Z,3.12
2018-07-11T12:56:33.301Z,3.02
2018-07-11T12:59:01.805Z,4.67
2018-07-11T13:01:30.308Z,2.80
2018-07-11T13:03:59.554Z,2.90
2018-07-11T13:06:28.991Z,3.00
2018-07-11T13:08:57.646Z,3.00
2018-07-11T13:11:26.173Z,2.35
2018-07-11T13:13:54.707Z,2.62
2018-07-11T13:16:23.265Z,4.60
2018-07-11T13:18:51.770Z,3.17
2018-07-11T13:21:20.232Z,4.37
2018-07-11T13:23:48.763Z,3.52
2018-07-11T13:26:17.199Z,4.17
2018-07-11T13:28:45.636Z,4.00
2018-07-11T13:31:14.231Z,2.62
2018-07-11T13:33:42.933Z,2.35
2018-07-11T13:36:11.421Z,2.50
2018-07-11T13:38:40.382Z,2.42
2018-07-11T13:41:09.637Z,2.60
2018-07-11T13:43:38.095Z,2.60
2018-07-11T13:46:06.572Z,2.75
2018-07-11T13:48:35.189Z,2.52
2018-07-11T13:51:03.873Z,2.58
2018-07-11T13:53:32.306Z,1.80
2018-07-11T13:56:00.869Z,2.70
2018-07-11T13:58:29.424Z,2.90
2018-07-11T14:00:57.964Z,2.33
2018-07-11T14:03:26.405Z,2.30
2018-07-11T14:05:54.996Z,2.70
2018-07-11T14:08:23.603Z,4.15
2018-07-11T14:10:52.101Z,2.58
2018-07-11T14:13:20.645Z,2.58
2018-07-11T14:15:49.109Z,3.70
2018-07-11T14:18:17.664Z,3.95
2018-07-11T14:20:46.123Z,3.83
2018-07-11T14:23:15.456Z,3.17
2018-07-11T14:25:44.062Z,3.55
2018-07-11T14:28:12.637Z,3.52
2018-07-11T14:30:41.128Z,4.10
2018-07-11T14:33:10.145Z,3.83
2018-07-11T14:35:38.645Z,4.10
2018-07-11T14:38:07.744Z,3.70
2018-07-11T14:40:36.200Z,4.00
2018-07-11T14:43:04.693Z,3.27
2018-07-11T14:45:33.694Z,4.40
2018-07-11T14:48:08.249Z,4.50
2018-07-11T14:50:36.701Z,4.80
2018-07-11T14:53:05.780Z,4.30
2018-07-11T14:55:34.262Z,4.05
2018-07-11T14:58:02.906Z,4.65
2018-07-11T15:00:31.346Z,5.35
2018-07-11T15:03:00.000Z,4.83
2018-07-11T15:05:28.712Z,4.90
2018-07-11T15:07:57.667Z,5.20
2018-07-11T15:10:26.489Z,5.42
2018-07-11T15:12:54.980Z,5.50
2018-07-11T15:15:23.460Z,4.72
2018-07-11T15:17:51.920Z,4.95
2018-07-11T15:20:20.411Z,5.58
2018-07-11T15:22:48.958Z,5.97
2018-07-11T15:25:17.413Z,5.50
2018-07-11T15:27:46.057Z,4.87
2018-07-11T15:30:14.583Z,6.05
2018-07-11T15:32:43.143Z,5.28
2018-07-11T15:35:11.592Z,4.95
2018-07-11T15:37:40.111Z,6.78
2018-07-11T15:40:08.685Z,5.78
2018-07-11T15:42:37.177Z,5.10
2018-07-11T15:45:06.478Z,5.53
2018-07-11T15:47:35.800Z,5.22
2018-07-11T15:50:04.534Z,4.92
2018-07-11T15:52:33.485Z,5.20
2018-07-11T15:55:03.605Z,6.05
2018-07-11T15:57:36.568Z,4.83
2018-07-11T16:00:11.881Z,4.83
2018-07-11T16:02:46.315Z,4.70
2018-07-11T16:05:17.518Z,5.00
2018-07-11T16:07:47.701Z,4.22
2018-07-11T16:10:16.734Z,4.65
2018-07-11T16:12:45.261Z,4.47
2018-07-11T16:15:13.723Z,4.12
2018-07-11T16:17:42.349Z,3.80
2018-07-11T16:20:10.833Z,4.22
2018-07-11T16:22:39.349Z,5.60
2018-07-11T16:25:07.872Z,5.70
2018-07-11T16:27:36.490Z,6.20
2018-07-11T16:30:05.100Z,4.78
2018-07-11T16:32:33.712Z,5.92
2018-07-11T16:35:02.238Z,4.05
2018-07-11T16:37:30.685Z,4.80
2018-07-11T16:39:59.124Z,5.78
2018-07-11T16:42:27.565Z,5.70
2018-07-11T16:44:56.057Z,6.00
2018-07-11T16:47:25.015Z,6.60
2018-07-11T16:49:53.527Z,5.42
2018-07-11T16:52:22.161Z,5.70
2018-07-11T16:54:50.777Z,5.42
2018-07-11T16:57:22.757Z,5.00
2018-07-11T17:00:05.866Z,6.00
2018-07-11T17:02:34.382Z,6.17
2018-07-11T17:05:08.064Z,7.53
2018-07-11T17:07:56.397Z,7.72
2018-07-11T17:10:25.207Z,8.13
2018-07-11T17:13:14.298Z,9.15
2018-07-11T17:15:47.014Z,8.80
2018-07-11T17:18:27.992Z,8.30
2018-07-11T17:20:57.973Z,8.33
2018-07-11T17:23:26.492Z,8.23
2018-07-11T17:25:55.012Z,8.10
2018-07-11T17:28:23.550Z,11.08
2018-07-11T17:30:52.734Z,10.30
2018-07-11T17:33:21.609Z,8.80
2018-07-11T17:35:53.035Z,9.50
2018-07-11T17:38:24.813Z,9.23
2018-07-11T17:40:53.335Z,9.48
2018-07-11T17:43:27.843Z,10.50
2018-07-11T17:45:56.358Z,11.25
2018-07-11T17:48:36.277Z,11.15
2018-07-11T17:51:11.362Z,9.75
2018-07-11T17:53:44.513Z,8.50
2018-07-11T17:56:14.254Z,8.35
2018-07-11T17:59:00.970Z,8.48
2018-07-11T18:01:39.512Z,7.87
2018-07-11T18:04:32.604Z,8.98
2018-07-11T18:07:08.872Z,8.30
2018-07-11T18:09:46.176Z,9.33
2018-07-11T18:12:22.236Z,9.13
2018-07-11T18:16:01.993Z,9.03
2018-07-11T18:18:50.000Z,8.40
2018-07-11T18:21:29.411Z,8.30
2018-07-11T18:26:23.198Z,10.93
2018-07-11T18:31:04.649Z,9.03
2018-07-11T18:34:42.048Z,9.33
2018-07-11T18:37:23.712Z,6.95
2018-07-11T18:40:03.828Z,6.80
2018-07-11T18:42:42.155Z,7.03
2018-07-11T18:45:47.161Z,6.92
2018-07-11T18:48:26.234Z,6.22
2018-07-11T18:52:04.794Z,6.97
2018-07-11T18:56:49.886Z,6.83
2018-07-11T18:59:28.806Z,7.75
2018-07-11T19:02:05.672Z,16.70
2018-07-11T19:05:13.273Z,14.53
2018-07-11T19:07:53.883Z,10.45
2018-07-11T19:10:39.185Z,9.05
2018-07-11T19:13:44.617Z,9.25
2018-07-11T19:16:22.568Z,8.80
2018-07-11T19:19:00.676Z,9.85
2018-07-11T19:21:40.326Z,9.08
2018-07-11T19:24:13.533Z,10.13
2018-07-11T19:26:55.462Z,9.43
2018-07-11T19:29:45.935Z,9.88
2018-07-11T19:32:20.947Z,9.10
2018-07-11T19:37:02.482Z,12.20
2018-07-11T19:39:43.945Z,10.15
2018-07-11T19:42:22.483Z,9.73
2018-07-11T19:46:06.426Z,9.83
2018-07-11T19:48:44.940Z,10.35
2018-07-11T19:53:28.552Z,10.15
2018-07-11T19:57:04.487Z,12.40
2018-07-11T19:59:33.006Z,10.28
2018-07-11T20:02:01.546Z,12.37
2018-07-11T20:04:30.072Z,9.83
2018-07-11T20:06:59.160Z,9.58
2018-07-11T20:09:27.725Z,11.88
2018-07-11T20:11:56.588Z,11.68
2018-07-11T20:14:25.105Z,10.55
2018-07-11T20:16:53.946Z,10.15
2018-07-11T20:19:22.467Z,9.83
2018-07-11T20:21:51.044Z,10.80
2018-07-11T20:24:20.321Z,11.30
2018-07-11T20:26:48.811Z,11.45
2018-07-11T20:29:17.312Z,11.68
2018-07-11T20:31:45.752Z,11.68
2018-07-11T20:34:14.274Z,12.33
2018-07-11T20:36:42.816Z,12.18
2018-07-11T20:39:11.656Z,13.43
2018-07-11T20:41:40.168Z,12.98
2018-07-11T20:44:09.360Z,12.93
2018-07-11T20:46:37.848Z,13.53
2018-07-11T20:49:11.606Z,14.23
2018-07-11T20:51:40.049Z,14.87
2018-07-11T20:54:09.221Z,14.03
2018-07-11T20:56:37.722Z,15.28
2018-07-11T20:59:17.325Z,16.35
2018-07-11T21:02:59.717Z,15.15
2018-07-11T21:07:47.807Z,15.03
2018-07-11T21:10:59.361Z,14.47
2018-07-11T21:14:10.361Z,14.50
2018-07-11T21:16:49.032Z,14.83
2018-07-11T21:19:17.546Z,14.58
2018-07-11T21:21:46.092Z,16.40
2018-07-11T21:24:14.777Z,15.48
2018-07-11T21:26:43.290Z,15.45
2018-07-11T21:29:11.780Z,17.32
2018-07-11T21:31:40.203Z,21.37
2018-07-11T21:34:08.687Z,17.27
2018-07-11T21:36:37.164Z,19.80
2018-07-11T21:39:06.083Z,17.87
2018-07-11T21:41:34.591Z,18.37
2018-07-11T21:44:03.161Z,17.95
2018-07-11T21:46:32.009Z,18.52
2018-07-11T21:49:00.553Z,18.37
2018-07-11T21:51:28.988Z,17.92
2018-07-11T21:53:57.576Z,17.92
2018-07-11T21:56:26.042Z,19.45
2018-07-11T21:58:54.582Z,18.50
2018-07-11T22:01:23.573Z,18.52
2018-07-11T22:03:52.108Z,19.45
2018-07-11T22:06:20.575Z,19.25
2018-07-11T22:08:48.999Z,18.73
2018-07-11T22:11:18.093Z,20.17
2018-07-11T22:13:46.576Z,20.82
2018-07-11T22:16:15.045Z,18.98
2018-07-11T22:18:44.672Z,17.30
2018-07-11T22:21:13.381Z,19.45
2018-07-11T22:23:40.795Z,19.30
2018-07-11T22:26:08.120Z,19.62
2018-07-11T22:28:35.621Z,19.52
2018-07-11T22:31:02.954Z,18.35
2018-07-11T22:33:30.265Z,18.05
2018-07-11T22:35:57.619Z,17.87
2018-07-11T22:38:25.002Z,19.37
2018-07-11T22:40:52.351Z,19.30
2018-07-11T22:43:19.737Z,18.80
2018-07-11T22:45:47.027Z,18.62
2018-07-11T22:48:14.443Z,18.85
2018-07-11T22:50:41.884Z,18.70
2018-07-11T22:53:09.184Z,20.62
2018-07-11T22:55:36.557Z,19.52
2018-07-11T22:58:03.929Z,19.95
2018-07-11T23:00:31.253Z,20.68
2018-07-11T23:02:58.596Z,20.17
2018-07-11T23:05:26.016Z,21.35
2018-07-11T23:07:53.526Z,20.77
2018-07-11T23:10:20.843Z,19.65
2018-07-11T23:12:48.197Z,18.95
2018-07-11T23:15:15.501Z,19.52
2018-07-11T23:17:42.838Z,20.90
2018-07-11T23:20:10.316Z,19.50
2018-07-11T23:22:37.837Z,20.15
2018-07-11T23:25:05.137Z,18.48
2018-07-11T23:27:32.424Z,18.95
2018-07-11T23:29:59.793Z,18.92
2018-07-11T23:32:27.101Z,18.85
2018-07-11T23:34:54.525Z,19.05
2018-07-11T23:37:21.856Z,19.45
2018-07-11T23:39:49.257Z,18.98
2018-07-11T23:42:16.656Z,19.07
2018-07-11T23:44:43.981Z,19.40
2018-07-11T23:47:11.377Z,18.42
2018-07-11T23:49:38.724Z,18.70
2018-07-11T23:52:06.059Z,18.73
2018-07-11T23:54:33.364Z,20.80
2018-07-11T23:57:00.718Z,19.42
2018-07-11T23:59:28.019Z,18.65
